Terminal Aerodrome Forecast
Issued by NWS Charleston, WV

Current Version | Previous Version | Graphics & Text | Print | Product List | Glossary On
Versions: 1 2 3 4 5 6 7 8 9 10 11 12 13 14 15 16 17 18 19 20 21 22 23 24 25 26 27 28
000
FTUS41 KRLX 180251 AAA
TAFBKW
TAF AMD
KBKW 180251Z 1803/1824 15007KT P6SM SCT200
     FM181100 19007KT P6SM BKN060 WS020/23045KT
     FM181700 21012G23KT P6SM BKN060=

USA.gov is the U.S. government's official web portal to all federal, state and local government web resources and services.